sensor_id;sensor_type;location;lat;lon;timestamp;P1;durP1;ratioP1;P2;durP2;ratioP2
51228;SDS011;37304;52.216;6.874;2022-11-20T00:04:34;7.60;;;5.03;;
51228;SDS011;37304;52.216;6.874;2022-11-20T00:09:34;10.60;;;6.00;;
51228;SDS011;37304;52.216;6.874;2022-11-20T00:14:35;12.20;;;6.13;;
51228;SDS011;37304;52.216;6.874;2022-11-20T00:19:35;14.53;;;6.30;;
51228;SDS011;37304;52.216;6.874;2022-11-20T00:24:35;12.73;;;6.43;;
51228;SDS011;37304;52.216;6.874;2022-11-20T00:29:36;14.03;;;7.10;;
51228;SDS011;37304;52.216;6.874;2022-11-20T00:34:36;9.57;;;6.05;;
51228;SDS011;37304;52.216;6.874;2022-11-20T00:39:36;23.58;;;7.00;;
51228;SDS011;37304;52.216;6.874;2022-11-20T00:44:36;20.00;;;8.00;;
51228;SDS011;37304;52.216;6.874;2022-11-20T00:49:37;23.88;;;9.38;;
51228;SDS011;37304;52.216;6.874;2022-11-20T00:54:37;14.43;;;6.33;;
51228;SDS011;37304;52.216;6.874;2022-11-20T00:59:37;11.82;;;7.40;;
51228;SDS011;37304;52.216;6.874;2022-11-20T01:04:38;13.95;;;7.40;;
51228;SDS011;37304;52.216;6.874;2022-11-20T01:09:38;15.25;;;7.05;;
51228;SDS011;37304;52.216;6.874;2022-11-20T01:14:38;10.87;;;6.17;;
51228;SDS011;37304;52.216;6.874;2022-11-20T01:19:38;15.10;;;7.13;;
51228;SDS011;37304;52.216;6.874;2022-11-20T01:24:39;12.45;;;6.68;;
51228;SDS011;37304;52.216;6.874;2022-11-20T01:29:39;20.02;;;7.57;;
51228;SDS011;37304;52.216;6.874;2022-11-20T01:34:39;17.88;;;8.07;;
51228;SDS011;37304;52.216;6.874;2022-11-20T01:39:40;12.13;;;7.27;;
51228;SDS011;37304;52.216;6.874;2022-11-20T01:44:45;16.25;;;6.75;;
51228;SDS011;37304;52.216;6.874;2022-11-20T01:49:48;11.38;;;6.63;;
51228;SDS011;37304;52.216;6.874;2022-11-20T01:54:54;15.43;;;6.80;;
51228;SDS011;37304;52.216;6.874;2022-11-20T02:00:09;17.35;;;9.00;;
51228;SDS011;37304;52.216;6.874;2022-11-20T02:05:17;18.40;;;8.32;;
51228;SDS011;37304;52.216;6.874;2022-11-20T02:10:22;17.25;;;7.68;;
51228;SDS011;37304;52.216;6.874;2022-11-20T02:15:23;11.98;;;7.07;;
51228;SDS011;37304;52.216;6.874;2022-11-20T02:20:23;17.73;;;6.73;;
51228;SDS011;37304;52.216;6.874;2022-11-20T02:25:24;12.10;;;6.70;;
51228;SDS011;37304;52.216;6.874;2022-11-20T02:30:26;14.38;;;6.28;;
51228;SDS011;37304;52.216;6.874;2022-11-20T02:40:27;12.38;;;5.70;;
51228;SDS011;37304;52.216;6.874;2022-11-20T02:45:27;11.33;;;6.13;;
51228;SDS011;37304;52.216;6.874;2022-11-20T02:50:27;12.80;;;5.75;;
51228;SDS011;37304;52.216;6.874;2022-11-20T02:55:28;8.52;;;5.70;;
51228;SDS011;37304;52.216;6.874;2022-11-20T03:00:28;15.50;;;8.13;;
51228;SDS011;37304;52.216;6.874;2022-11-20T03:05:28;9.53;;;5.47;;
51228;SDS011;37304;52.216;6.874;2022-11-20T03:10:29;9.40;;;6.20;;
51228;SDS011;37304;52.216;6.874;2022-11-20T03:15:29;11.40;;;6.57;;
51228;SDS011;37304;52.216;6.874;2022-11-20T03:20:29;12.97;;;7.47;;
51228;SDS011;37304;52.216;6.874;2022-11-20T03:25:30;10.65;;;6.80;;
51228;SDS011;37304;52.216;6.874;2022-11-20T03:30:30;11.47;;;6.43;;
51228;SDS011;37304;52.216;6.874;2022-11-20T03:35:30;12.17;;;6.23;;
51228;SDS011;37304;52.216;6.874;2022-11-20T03:40:31;12.27;;;6.10;;
51228;SDS011;37304;52.216;6.874;2022-11-20T03:45:31;12.27;;;5.88;;
51228;SDS011;37304;52.216;6.874;2022-11-20T03:50:31;12.07;;;7.38;;
51228;SDS011;37304;52.216;6.874;2022-11-20T03:55:31;12.48;;;5.97;;
51228;SDS011;37304;52.216;6.874;2022-11-20T04:00:32;11.10;;;6.18;;
51228;SDS011;37304;52.216;6.874;2022-11-20T04:05:33;9.15;;;5.85;;
51228;SDS011;37304;52.216;6.874;2022-11-20T04:10:34;10.30;;;6.50;;
51228;SDS011;37304;52.216;6.874;2022-11-20T04:15:34;7.47;;;5.47;;
51228;SDS011;37304;52.216;6.874;2022-11-20T04:20:34;8.43;;;6.35;;
51228;SDS011;37304;52.216;6.874;2022-11-20T04:25:35;10.98;;;6.43;;
51228;SDS011;37304;52.216;6.874;2022-11-20T04:30:35;10.75;;;5.85;;
51228;SDS011;37304;52.216;6.874;2022-11-20T04:35:36;12.63;;;5.90;;
51228;SDS011;37304;52.216;6.874;2022-11-20T04:40:37;11.00;;;5.63;;
51228;SDS011;37304;52.216;6.874;2022-11-20T04:45:40;8.02;;;5.43;;
51228;SDS011;37304;52.216;6.874;2022-11-20T04:50:41;9.23;;;5.30;;
51228;SDS011;37304;52.216;6.874;2022-11-20T04:55:41;9.47;;;4.97;;
51228;SDS011;37304;52.216;6.874;2022-11-20T05:00:41;9.40;;;4.55;;
51228;SDS011;37304;52.216;6.874;2022-11-20T05:05:42;11.30;;;4.45;;
51228;SDS011;37304;52.216;6.874;2022-11-20T05:10:42;9.35;;;5.30;;
51228;SDS011;37304;52.216;6.874;2022-11-20T05:15:42;7.78;;;4.35;;
51228;SDS011;37304;52.216;6.874;2022-11-20T05:20:43;9.18;;;4.75;;
51228;SDS011;37304;52.216;6.874;2022-11-20T05:25:43;10.17;;;5.77;;
51228;SDS011;37304;52.216;6.874;2022-11-20T05:30:43;9.97;;;6.17;;
51228;SDS011;37304;52.216;6.874;2022-11-20T05:35:44;14.00;;;6.70;;
51228;SDS011;37304;52.216;6.874;2022-11-20T05:40:44;14.00;;;4.80;;
51228;SDS011;37304;52.216;6.874;2022-11-20T05:45:51;14.80;;;6.30;;
51228;SDS011;37304;52.216;6.874;2022-11-20T05:50:53;6.20;;;4.63;;
51228;SDS011;37304;52.216;6.874;2022-11-20T05:56:00;10.90;;;5.13;;
51228;SDS011;37304;52.216;6.874;2022-11-20T06:01:11;13.75;;;6.45;;
51228;SDS011;37304;52.216;6.874;2022-11-20T06:06:13;9.02;;;4.45;;
51228;SDS011;37304;52.216;6.874;2022-11-20T06:11:15;9.80;;;4.72;;
51228;SDS011;37304;52.216;6.874;2022-11-20T06:16:17;10.77;;;5.53;;
51228;SDS011;37304;52.216;6.874;2022-11-20T06:21:19;9.77;;;5.80;;
51228;SDS011;37304;52.216;6.874;2022-11-20T06:26:21;9.27;;;6.32;;
51228;SDS011;37304;52.216;6.874;2022-11-20T06:31:24;8.88;;;5.85;;
51228;SDS011;37304;52.216;6.874;2022-11-20T06:36:25;10.57;;;5.70;;
51228;SDS011;37304;52.216;6.874;2022-11-20T06:41:25;17.70;;;5.13;;
51228;SDS011;37304;52.216;6.874;2022-11-20T06:46:26;15.67;;;8.07;;
51228;SDS011;37304;52.216;6.874;2022-11-20T06:51:26;10.50;;;5.22;;
51228;SDS011;37304;52.216;6.874;2022-11-20T06:56:26;7.18;;;5.18;;
51228;SDS011;37304;52.216;6.874;2022-11-20T07:01:27;16.25;;;7.78;;
51228;SDS011;37304;52.216;6.874;2022-11-20T07:06:28;10.98;;;5.45;;
51228;SDS011;37304;52.216;6.874;2022-11-20T07:11:28;7.70;;;3.93;;
51228;SDS011;37304;52.216;6.874;2022-11-20T07:16:28;8.88;;;5.65;;
51228;SDS011;37304;52.216;6.874;2022-11-20T07:21:29;8.55;;;4.60;;
51228;SDS011;37304;52.216;6.874;2022-11-20T07:26:29;10.07;;;6.20;;
51228;SDS011;37304;52.216;6.874;2022-11-20T07:31:29;9.77;;;5.00;;
51228;SDS011;37304;52.216;6.874;2022-11-20T07:36:30;10.65;;;5.78;;
51228;SDS011;37304;52.216;6.874;2022-11-20T07:41:30;10.27;;;5.70;;
51228;SDS011;37304;52.216;6.874;2022-11-20T07:46:31;12.10;;;6.22;;
51228;SDS011;37304;52.216;6.874;2022-11-20T07:51:31;13.63;;;7.23;;
51228;SDS011;37304;52.216;6.874;2022-11-20T07:56:31;11.25;;;6.00;;
51228;SDS011;37304;52.216;6.874;2022-11-20T08:01:32;13.98;;;7.38;;
51228;SDS011;37304;52.216;6.874;2022-11-20T08:06:32;12.83;;;6.43;;
51228;SDS011;37304;52.216;6.874;2022-11-20T08:11:32;14.03;;;6.47;;
51228;SDS011;37304;52.216;6.874;2022-11-20T08:16:51;14.77;;;7.97;;
51228;SDS011;37304;52.216;6.874;2022-11-20T08:21:51;8.50;;;4.80;;
51228;SDS011;37304;52.216;6.874;2022-11-20T08:26:52;13.98;;;7.10;;
51228;SDS011;37304;52.216;6.874;2022-11-20T08:31:52;14.43;;;7.83;;
51228;SDS011;37304;52.216;6.874;2022-11-20T08:36:53;20.35;;;8.95;;
51228;SDS011;37304;52.216;6.874;2022-11-20T08:41:53;19.37;;;8.10;;
51228;SDS011;37304;52.216;6.874;2022-11-20T08:46:53;14.70;;;9.43;;
51228;SDS011;37304;52.216;6.874;2022-11-20T08:51:54;16.10;;;8.18;;
51228;SDS011;37304;52.216;6.874;2022-11-20T08:56:55;16.73;;;8.05;;
51228;SDS011;37304;52.216;6.874;2022-11-20T09:01:55;16.25;;;8.15;;
51228;SDS011;37304;52.216;6.874;2022-11-20T09:06:55;15.57;;;8.70;;
51228;SDS011;37304;52.216;6.874;2022-11-20T09:11:56;15.98;;;8.57;;
51228;SDS011;37304;52.216;6.874;2022-11-20T09:16:56;16.70;;;8.07;;
51228;SDS011;37304;52.216;6.874;2022-11-20T09:21:56;17.87;;;9.13;;
51228;SDS011;37304;52.216;6.874;2022-11-20T09:26:57;15.23;;;8.73;;
51228;SDS011;37304;52.216;6.874;2022-11-20T09:31:57;20.03;;;7.87;;
51228;SDS011;37304;52.216;6.874;2022-11-20T09:36:57;17.63;;;8.30;;
51228;SDS011;37304;52.216;6.874;2022-11-20T09:42:01;18.70;;;9.53;;
51228;SDS011;37304;52.216;6.874;2022-11-20T09:47:11;18.75;;;8.75;;
51228;SDS011;37304;52.216;6.874;2022-11-20T09:52:22;23.75;;;10.95;;
51228;SDS011;37304;52.216;6.874;2022-11-20T09:57:31;15.43;;;8.20;;
51228;SDS011;37304;52.216;6.874;2022-11-20T10:08:51;13.05;;;7.00;;
51228;SDS011;37304;52.216;6.874;2022-11-20T10:19:40;19.33;;;10.30;;
51228;SDS011;37304;52.216;6.874;2022-11-20T10:25:13;19.30;;;7.80;;
51228;SDS011;37304;52.216;6.874;2022-11-20T10:35:22;17.45;;;8.57;;
51228;SDS011;37304;52.216;6.874;2022-11-20T11:01:47;19.63;;;9.02;;
51228;SDS011;37304;52.216;6.874;2022-11-20T11:06:48;20.67;;;9.48;;
51228;SDS011;37304;52.216;6.874;2022-11-20T11:11:49;16.75;;;9.00;;
51228;SDS011;37304;52.216;6.874;2022-11-20T11:16:50;17.13;;;9.10;;
51228;SDS011;37304;52.216;6.874;2022-11-20T11:21:55;20.55;;;8.95;;
51228;SDS011;37304;52.216;6.874;2022-11-20T11:26:57;16.88;;;8.13;;
51228;SDS011;37304;52.216;6.874;2022-11-20T11:32:04;19.40;;;8.25;;
51228;SDS011;37304;52.216;6.874;2022-11-20T11:37:19;15.82;;;8.57;;
51228;SDS011;37304;52.216;6.874;2022-11-20T11:42:24;14.98;;;8.63;;
51228;SDS011;37304;52.216;6.874;2022-11-20T11:52:31;19.85;;;8.05;;
51228;SDS011;37304;52.216;6.874;2022-11-20T11:57:51;17.38;;;7.65;;
51228;SDS011;37304;52.216;6.874;2022-11-20T12:03:22;14.20;;;7.10;;
51228;SDS011;37304;52.216;6.874;2022-11-20T12:09:10;13.85;;;7.22;;
51228;SDS011;37304;52.216;6.874;2022-11-20T12:14:09;13.27;;;6.55;;
51228;SDS011;37304;52.216;6.874;2022-11-20T12:19:17;13.02;;;5.28;;
51228;SDS011;37304;52.216;6.874;2022-11-20T12:29:51;9.63;;;5.18;;
51228;SDS011;37304;52.216;6.874;2022-11-20T12:46:50;10.10;;;5.22;;
51228;SDS011;37304;52.216;6.874;2022-11-20T12:57:40;10.20;;;5.53;;
51228;SDS011;37304;52.216;6.874;2022-11-20T13:02:59;11.55;;;5.03;;
51228;SDS011;37304;52.216;6.874;2022-11-20T13:08:30;11.88;;;6.32;;
51228;SDS011;37304;52.216;6.874;2022-11-20T13:13:47;11.00;;;5.60;;
51228;SDS011;37304;52.216;6.874;2022-11-20T13:18:51;9.27;;;4.95;;
51228;SDS011;37304;52.216;6.874;2022-11-20T13:23:51;9.57;;;5.10;;
51228;SDS011;37304;52.216;6.874;2022-11-20T13:29:11;11.82;;;5.38;;
51228;SDS011;37304;52.216;6.874;2022-11-20T13:34:25;9.55;;;6.25;;
51228;SDS011;37304;52.216;6.874;2022-11-20T13:39:28;14.18;;;6.68;;
51228;SDS011;37304;52.216;6.874;2022-11-20T13:44:45;14.27;;;6.88;;
51228;SDS011;37304;52.216;6.874;2022-11-20T13:49:51;13.98;;;5.03;;
51228;SDS011;37304;52.216;6.874;2022-11-20T14:00:20;12.40;;;7.13;;
51228;SDS011;37304;52.216;6.874;2022-11-20T14:05:22;17.30;;;8.98;;
51228;SDS011;37304;52.216;6.874;2022-11-20T14:10:25;16.98;;;8.15;;
51228;SDS011;37304;52.216;6.874;2022-11-20T14:15:30;14.75;;;7.43;;
51228;SDS011;37304;52.216;6.874;2022-11-20T14:20:31;14.65;;;6.93;;
51228;SDS011;37304;52.216;6.874;2022-11-20T14:25:32;17.77;;;8.43;;
51228;SDS011;37304;52.216;6.874;2022-11-20T14:30:42;16.70;;;8.27;;
51228;SDS011;37304;52.216;6.874;2022-11-20T14:35:48;17.70;;;6.68;;
51228;SDS011;37304;52.216;6.874;2022-11-20T14:40:50;15.80;;;7.43;;
51228;SDS011;37304;52.216;6.874;2022-11-20T14:45:55;17.65;;;7.68;;
51228;SDS011;37304;52.216;6.874;2022-11-20T14:51:01;12.90;;;6.43;;
51228;SDS011;37304;52.216;6.874;2022-11-20T14:56:02;7.20;;;4.47;;
51228;SDS011;37304;52.216;6.874;2022-11-20T15:01:04;20.15;;;8.63;;
51228;SDS011;37304;52.216;6.874;2022-11-20T15:06:07;20.33;;;9.75;;
51228;SDS011;37304;52.216;6.874;2022-11-20T15:11:22;21.70;;;8.00;;
51228;SDS011;37304;52.216;6.874;2022-11-20T15:16:30;20.85;;;9.32;;
51228;SDS011;37304;52.216;6.874;2022-11-20T15:21:30;16.90;;;8.48;;
51228;SDS011;37304;52.216;6.874;2022-11-20T15:26:31;23.40;;;9.63;;
51228;SDS011;37304;52.216;6.874;2022-11-20T15:31:31;18.07;;;8.40;;
51228;SDS011;37304;52.216;6.874;2022-11-20T15:36:32;23.90;;;10.20;;
51228;SDS011;37304;52.216;6.874;2022-11-20T15:41:32;22.03;;;8.97;;
51228;SDS011;37304;52.216;6.874;2022-11-20T15:46:36;20.23;;;8.55;;
51228;SDS011;37304;52.216;6.874;2022-11-20T15:51:41;18.88;;;8.07;;
51228;SDS011;37304;52.216;6.874;2022-11-20T15:56:43;22.00;;;9.10;;
51228;SDS011;37304;52.216;6.874;2022-11-20T16:01:44;27.20;;;11.93;;
51228;SDS011;37304;52.216;6.874;2022-11-20T16:06:45;20.63;;;9.57;;
51228;SDS011;37304;52.216;6.874;2022-11-20T16:11:45;25.10;;;10.57;;
51228;SDS011;37304;52.216;6.874;2022-11-20T16:16:45;22.57;;;9.13;;
51228;SDS011;37304;52.216;6.874;2022-11-20T16:21:46;21.70;;;9.27;;
51228;SDS011;37304;52.216;6.874;2022-11-20T16:26:46;19.87;;;9.47;;
51228;SDS011;37304;52.216;6.874;2022-11-20T16:31:47;22.63;;;9.90;;
51228;SDS011;37304;52.216;6.874;2022-11-20T16:36:47;18.75;;;8.88;;
51228;SDS011;37304;52.216;6.874;2022-11-20T16:41:48;21.92;;;8.20;;
51228;SDS011;37304;52.216;6.874;2022-11-20T16:46:48;21.63;;;10.27;;
51228;SDS011;37304;52.216;6.874;2022-11-20T16:51:49;22.40;;;9.50;;
51228;SDS011;37304;52.216;6.874;2022-11-20T16:56:49;16.63;;;9.57;;
51228;SDS011;37304;52.216;6.874;2022-11-20T17:11:51;17.20;;;8.30;;
51228;SDS011;37304;52.216;6.874;2022-11-20T17:16:52;25.30;;;9.77;;
51228;SDS011;37304;52.216;6.874;2022-11-20T17:21:52;24.15;;;11.48;;
51228;SDS011;37304;52.216;6.874;2022-11-20T17:26:52;18.90;;;9.70;;
51228;SDS011;37304;52.216;6.874;2022-11-20T17:31:53;30.10;;;12.60;;
51228;SDS011;37304;52.216;6.874;2022-11-20T17:36:53;26.15;;;11.48;;
51228;SDS011;37304;52.216;6.874;2022-11-20T17:41:54;26.13;;;11.27;;
51228;SDS011;37304;52.216;6.874;2022-11-20T17:47:13;22.13;;;10.18;;
51228;SDS011;37304;52.216;6.874;2022-11-20T17:52:13;24.10;;;11.87;;
51228;SDS011;37304;52.216;6.874;2022-11-20T17:57:14;24.42;;;10.52;;
51228;SDS011;37304;52.216;6.874;2022-11-20T18:02:33;21.63;;;9.82;;
51228;SDS011;37304;52.216;6.874;2022-11-20T18:07:33;24.57;;;11.83;;
51228;SDS011;37304;52.216;6.874;2022-11-20T18:12:36;24.83;;;11.73;;
51228;SDS011;37304;52.216;6.874;2022-11-20T18:17:36;22.83;;;10.40;;
51228;SDS011;37304;52.216;6.874;2022-11-20T18:22:37;28.23;;;10.93;;
51228;SDS011;37304;52.216;6.874;2022-11-20T18:27:40;25.50;;;12.03;;
51228;SDS011;37304;52.216;6.874;2022-11-20T18:32:41;27.67;;;12.45;;
51228;SDS011;37304;52.216;6.874;2022-11-20T18:37:44;25.13;;;12.15;;
51228;SDS011;37304;52.216;6.874;2022-11-20T18:42:45;28.43;;;12.57;;
51228;SDS011;37304;52.216;6.874;2022-11-20T18:48:04;28.65;;;12.07;;
51228;SDS011;37304;52.216;6.874;2022-11-20T18:53:04;24.37;;;10.63;;
51228;SDS011;37304;52.216;6.874;2022-11-20T18:58:07;13.88;;;6.43;;
51228;SDS011;37304;52.216;6.874;2022-11-20T19:03:08;18.77;;;7.63;;
51228;SDS011;37304;52.216;6.874;2022-11-20T19:08:08;18.95;;;7.82;;
51228;SDS011;37304;52.216;6.874;2022-11-20T19:13:08;15.33;;;5.47;;
51228;SDS011;37304;52.216;6.874;2022-11-20T19:18:09;13.60;;;7.13;;
51228;SDS011;37304;52.216;6.874;2022-11-20T19:23:09;15.70;;;7.80;;
51228;SDS011;37304;52.216;6.874;2022-11-20T19:28:10;17.85;;;7.07;;
51228;SDS011;37304;52.216;6.874;2022-11-20T19:33:10;13.60;;;7.57;;
51228;SDS011;37304;52.216;6.874;2022-11-20T19:38:10;13.43;;;6.70;;
51228;SDS011;37304;52.216;6.874;2022-11-20T19:43:11;15.03;;;8.03;;
51228;SDS011;37304;52.216;6.874;2022-11-20T19:48:11;9.70;;;4.97;;
51228;SDS011;37304;52.216;6.874;2022-11-20T19:53:11;16.03;;;7.67;;
51228;SDS011;37304;52.216;6.874;2022-11-20T19:58:12;19.45;;;7.30;;
51228;SDS011;37304;52.216;6.874;2022-11-20T20:03:12;16.63;;;7.97;;
51228;SDS011;37304;52.216;6.874;2022-11-20T20:08:13;11.17;;;5.83;;
51228;SDS011;37304;52.216;6.874;2022-11-20T20:13:14;17.40;;;8.18;;
51228;SDS011;37304;52.216;6.874;2022-11-20T20:18:14;13.13;;;5.93;;
51228;SDS011;37304;52.216;6.874;2022-11-20T20:23:15;11.80;;;6.68;;
51228;SDS011;37304;52.216;6.874;2022-11-20T20:28:15;15.00;;;7.07;;
51228;SDS011;37304;52.216;6.874;2022-11-20T20:33:15;14.15;;;6.95;;
51228;SDS011;37304;52.216;6.874;2022-11-20T20:38:16;14.60;;;7.00;;
51228;SDS011;37304;52.216;6.874;2022-11-20T20:43:16;13.40;;;5.70;;
51228;SDS011;37304;52.216;6.874;2022-11-20T20:48:17;19.23;;;7.37;;
51228;SDS011;37304;52.216;6.874;2022-11-20T20:53:20;13.63;;;6.78;;
51228;SDS011;37304;52.216;6.874;2022-11-20T20:58:21;11.27;;;6.32;;
51228;SDS011;37304;52.216;6.874;2022-11-20T21:03:22;15.93;;;9.40;;
51228;SDS011;37304;52.216;6.874;2022-11-20T21:08:23;18.73;;;10.07;;
51228;SDS011;37304;52.216;6.874;2022-11-20T21:13:24;21.50;;;9.30;;
51228;SDS011;37304;52.216;6.874;2022-11-20T21:18:24;18.77;;;9.87;;
51228;SDS011;37304;52.216;6.874;2022-11-20T21:23:26;18.25;;;8.63;;
51228;SDS011;37304;52.216;6.874;2022-11-20T21:28:26;21.33;;;8.33;;
51228;SDS011;37304;52.216;6.874;2022-11-20T21:33:27;18.73;;;9.00;;
51228;SDS011;37304;52.216;6.874;2022-11-20T21:38:28;21.13;;;9.07;;
51228;SDS011;37304;52.216;6.874;2022-11-20T21:43:28;24.75;;;8.80;;
51228;SDS011;37304;52.216;6.874;2022-11-20T21:48:30;16.35;;;8.07;;
51228;SDS011;37304;52.216;6.874;2022-11-20T21:53:31;22.42;;;8.95;;
51228;SDS011;37304;52.216;6.874;2022-11-20T21:58:32;20.77;;;10.30;;
51228;SDS011;37304;52.216;6.874;2022-11-20T22:03:34;22.15;;;10.57;;
51228;SDS011;37304;52.216;6.874;2022-11-20T22:08:35;22.80;;;9.90;;
51228;SDS011;37304;52.216;6.874;2022-11-20T22:13:37;23.42;;;9.25;;
51228;SDS011;37304;52.216;6.874;2022-11-20T22:18:56;14.30;;;7.97;;
51228;SDS011;37304;52.216;6.874;2022-11-20T22:23:57;26.60;;;10.15;;
51228;SDS011;37304;52.216;6.874;2022-11-20T22:28:58;20.08;;;9.00;;
51228;SDS011;37304;52.216;6.874;2022-11-20T22:34:00;16.30;;;8.20;;
51228;SDS011;37304;52.216;6.874;2022-11-20T22:39:01;19.45;;;9.07;;
51228;SDS011;37304;52.216;6.874;2022-11-20T22:44:04;24.20;;;10.10;;
51228;SDS011;37304;52.216;6.874;2022-11-20T22:49:06;21.10;;;10.07;;
51228;SDS011;37304;52.216;6.874;2022-11-20T22:54:10;18.02;;;8.95;;
51228;SDS011;37304;52.216;6.874;2022-11-20T22:59:11;20.95;;;8.77;;
51228;SDS011;37304;52.216;6.874;2022-11-20T23:04:11;23.05;;;9.60;;
51228;SDS011;37304;52.216;6.874;2022-11-20T23:09:12;16.83;;;9.03;;
51228;SDS011;37304;52.216;6.874;2022-11-20T23:14:13;18.13;;;8.63;;
51228;SDS011;37304;52.216;6.874;2022-11-20T23:19:14;24.23;;;12.00;;
51228;SDS011;37304;52.216;6.874;2022-11-20T23:24:14;21.47;;;9.57;;
51228;SDS011;37304;52.216;6.874;2022-11-20T23:29:15;21.23;;;10.63;;
51228;SDS011;37304;52.216;6.874;2022-11-20T23:34:15;21.53;;;9.07;;
51228;SDS011;37304;52.216;6.874;2022-11-20T23:39:16;20.13;;;9.77;;
51228;SDS011;37304;52.216;6.874;2022-11-20T23:44:16;19.52;;;9.25;;
51228;SDS011;37304;52.216;6.874;2022-11-20T23:49:16;21.83;;;9.83;;
51228;SDS011;37304;52.216;6.874;2022-11-20T23:54:17;19.97;;;10.03;;
51228;SDS011;37304;52.216;6.874;2022-11-20T23:59:17;20.05;;;9.00;;
